sensor_id;sensor_type;location;lat;lon;timestamp;temperature;humidity
34766;DHT22;20984;43.508;1.504;2024-03-06T00:00:25;6.60;99.90
34766;DHT22;20984;43.508;1.504;2024-03-06T00:02:51;6.60;99.90
34766;DHT22;20984;43.508;1.504;2024-03-06T00:05:16;6.60;99.90
34766;DHT22;20984;43.508;1.504;2024-03-06T00:07:42;6.60;99.90
34766;DHT22;20984;43.508;1.504;2024-03-06T00:10:08;6.60;99.90
34766;DHT22;20984;43.508;1.504;2024-03-06T00:12:33;6.60;99.90
34766;DHT22;20984;43.508;1.504;2024-03-06T00:14:59;6.60;99.90
34766;DHT22;20984;43.508;1.504;2024-03-06T00:17:25;6.70;99.90
34766;DHT22;20984;43.508;1.504;2024-03-06T00:19:51;6.70;99.90
34766;DHT22;20984;43.508;1.504;2024-03-06T00:22:16;6.80;99.90
34766;DHT22;20984;43.508;1.504;2024-03-06T00:24:42;6.90;99.90
34766;DHT22;20984;43.508;1.504;2024-03-06T00:27:08;6.90;99.90
34766;DHT22;20984;43.508;1.504;2024-03-06T00:29:33;7.00;99.90
34766;DHT22;20984;43.508;1.504;2024-03-06T00:32:01;7.00;99.90
34766;DHT22;20984;43.508;1.504;2024-03-06T00:34:27;7.00;99.90
34766;DHT22;20984;43.508;1.504;2024-03-06T00:36:53;7.00;99.90
34766;DHT22;20984;43.508;1.504;2024-03-06T00:39:19;7.00;99.90
34766;DHT22;20984;43.508;1.504;2024-03-06T00:41:45;7.10;99.90
34766;DHT22;20984;43.508;1.504;2024-03-06T00:44:10;7.10;99.90
34766;DHT22;20984;43.508;1.504;2024-03-06T00:46:36;7.10;99.90
34766;DHT22;20984;43.508;1.504;2024-03-06T00:49:02;7.20;99.90
34766;DHT22;20984;43.508;1.504;2024-03-06T00:51:27;7.10;99.90
34766;DHT22;20984;43.508;1.504;2024-03-06T00:53:53;7.20;99.90
34766;DHT22;20984;43.508;1.504;2024-03-06T00:56:18;7.20;99.90
34766;DHT22;20984;43.508;1.504;2024-03-06T00:58:44;7.20;99.90
34766;DHT22;20984;43.508;1.504;2024-03-06T01:01:10;7.20;99.90
34766;DHT22;20984;43.508;1.504;2024-03-06T01:03:37;7.10;99.90
34766;DHT22;20984;43.508;1.504;2024-03-06T01:06:02;7.10;99.90
34766;DHT22;20984;43.508;1.504;2024-03-06T01:08:28;7.20;99.90
34766;DHT22;20984;43.508;1.504;2024-03-06T01:10:53;7.10;99.90
34766;DHT22;20984;43.508;1.504;2024-03-06T01:13:19;7.10;99.90
34766;DHT22;20984;43.508;1.504;2024-03-06T01:15:45;7.00;99.90
34766;DHT22;20984;43.508;1.504;2024-03-06T01:18:10;7.00;99.90
34766;DHT22;20984;43.508;1.504;2024-03-06T01:20:36;7.00;99.90
34766;DHT22;20984;43.508;1.504;2024-03-06T01:23:02;7.00;99.90
34766;DHT22;20984;43.508;1.504;2024-03-06T01:25:28;7.00;99.90
34766;DHT22;20984;43.508;1.504;2024-03-06T01:27:53;7.00;99.90
34766;DHT22;20984;43.508;1.504;2024-03-06T01:30:19;7.00;99.90
34766;DHT22;20984;43.508;1.504;2024-03-06T01:32:44;7.00;99.90
34766;DHT22;20984;43.508;1.504;2024-03-06T01:35:10;7.00;99.90
34766;DHT22;20984;43.508;1.504;2024-03-06T01:37:35;7.00;99.90
34766;DHT22;20984;43.508;1.504;2024-03-06T01:40:01;6.90;99.90
34766;DHT22;20984;43.508;1.504;2024-03-06T01:42:29;6.90;99.90
34766;DHT22;20984;43.508;1.504;2024-03-06T01:44:55;6.90;99.90
34766;DHT22;20984;43.508;1.504;2024-03-06T01:47:20;6.90;99.90
34766;DHT22;20984;43.508;1.504;2024-03-06T01:49:46;6.80;99.90
34766;DHT22;20984;43.508;1.504;2024-03-06T01:52:12;6.80;99.90
34766;DHT22;20984;43.508;1.504;2024-03-06T01:54:38;6.80;99.90
34766;DHT22;20984;43.508;1.504;2024-03-06T01:57:04;6.80;99.90
34766;DHT22;20984;43.508;1.504;2024-03-06T01:59:31;6.80;99.90
34766;DHT22;20984;43.508;1.504;2024-03-06T02:01:57;6.80;99.90
34766;DHT22;20984;43.508;1.504;2024-03-06T02:04:23;6.80;99.90
34766;DHT22;20984;43.508;1.504;2024-03-06T02:06:49;6.80;99.90
34766;DHT22;20984;43.508;1.504;2024-03-06T02:09:16;6.80;99.90
34766;DHT22;20984;43.508;1.504;2024-03-06T02:11:42;6.80;99.90
34766;DHT22;20984;43.508;1.504;2024-03-06T02:14:07;6.70;99.90
34766;DHT22;20984;43.508;1.504;2024-03-06T02:16:35;6.70;99.90
34766;DHT22;20984;43.508;1.504;2024-03-06T02:19:01;6.70;99.90
34766;DHT22;20984;43.508;1.504;2024-03-06T02:21:26;6.70;99.90
34766;DHT22;20984;43.508;1.504;2024-03-06T02:23:52;6.70;99.90
34766;DHT22;20984;43.508;1.504;2024-03-06T02:26:18;6.70;99.90
34766;DHT22;20984;43.508;1.504;2024-03-06T02:28:50;6.70;99.90
34766;DHT22;20984;43.508;1.504;2024-03-06T02:31:16;6.70;99.90
34766;DHT22;20984;43.508;1.504;2024-03-06T02:33:43;6.70;99.90
34766;DHT22;20984;43.508;1.504;2024-03-06T02:36:08;6.70;99.90
34766;DHT22;20984;43.508;1.504;2024-03-06T02:38:34;6.80;99.90
34766;DHT22;20984;43.508;1.504;2024-03-06T02:41:00;6.80;99.90
34766;DHT22;20984;43.508;1.504;2024-03-06T02:43:26;6.80;99.90
34766;DHT22;20984;43.508;1.504;2024-03-06T02:45:52;6.80;99.90
34766;DHT22;20984;43.508;1.504;2024-03-06T02:48:17;6.80;99.90
34766;DHT22;20984;43.508;1.504;2024-03-06T02:50:43;6.80;99.90
34766;DHT22;20984;43.508;1.504;2024-03-06T02:53:09;6.70;99.90
34766;DHT22;20984;43.508;1.504;2024-03-06T02:55:34;6.70;99.90
34766;DHT22;20984;43.508;1.504;2024-03-06T02:58:03;6.70;99.90
34766;DHT22;20984;43.508;1.504;2024-03-06T03:00:29;6.70;99.90
34766;DHT22;20984;43.508;1.504;2024-03-06T03:02:54;6.70;99.90
34766;DHT22;20984;43.508;1.504;2024-03-06T03:05:20;6.70;99.90
34766;DHT22;20984;43.508;1.504;2024-03-06T03:07:45;6.70;99.90
34766;DHT22;20984;43.508;1.504;2024-03-06T03:10:11;6.70;99.90
34766;DHT22;20984;43.508;1.504;2024-03-06T03:12:40;6.70;99.90
34766;DHT22;20984;43.508;1.504;2024-03-06T03:15:06;6.70;99.90
34766;DHT22;20984;43.508;1.504;2024-03-06T03:17:32;6.70;99.90
34766;DHT22;20984;43.508;1.504;2024-03-06T03:19:59;6.60;99.90
34766;DHT22;20984;43.508;1.504;2024-03-06T03:22:25;6.60;99.90
34766;DHT22;20984;43.508;1.504;2024-03-06T03:24:50;6.60;99.90
34766;DHT22;20984;43.508;1.504;2024-03-06T03:27:16;6.50;99.90
34766;DHT22;20984;43.508;1.504;2024-03-06T03:29:41;6.50;99.90
34766;DHT22;20984;43.508;1.504;2024-03-06T03:32:07;6.50;99.90
34766;DHT22;20984;43.508;1.504;2024-03-06T03:34:33;6.60;99.90
34766;DHT22;20984;43.508;1.504;2024-03-06T03:36:59;6.60;99.90
34766;DHT22;20984;43.508;1.504;2024-03-06T03:39:24;6.50;99.90
34766;DHT22;20984;43.508;1.504;2024-03-06T03:41:50;6.60;99.90
34766;DHT22;20984;43.508;1.504;2024-03-06T03:44:16;6.50;99.90
34766;DHT22;20984;43.508;1.504;2024-03-06T03:46:42;6.50;99.90
34766;DHT22;20984;43.508;1.504;2024-03-06T03:49:08;6.50;99.90
34766;DHT22;20984;43.508;1.504;2024-03-06T03:51:37;6.40;99.90
34766;DHT22;20984;43.508;1.504;2024-03-06T03:54:03;6.40;99.90
34766;DHT22;20984;43.508;1.504;2024-03-06T03:56:28;6.40;99.90
34766;DHT22;20984;43.508;1.504;2024-03-06T03:58:55;6.30;99.90
34766;DHT22;20984;43.508;1.504;2024-03-06T04:01:21;6.30;99.90
34766;DHT22;20984;43.508;1.504;2024-03-06T04:03:46;6.30;99.90
34766;DHT22;20984;43.508;1.504;2024-03-06T04:06:13;6.20;99.90
34766;DHT22;20984;43.508;1.504;2024-03-06T04:08:39;6.20;99.90
34766;DHT22;20984;43.508;1.504;2024-03-06T04:11:04;6.20;99.90
34766;DHT22;20984;43.508;1.504;2024-03-06T04:13:30;6.20;99.90
34766;DHT22;20984;43.508;1.504;2024-03-06T04:15:55;6.30;99.90
34766;DHT22;20984;43.508;1.504;2024-03-06T04:18:21;6.30;99.90
34766;DHT22;20984;43.508;1.504;2024-03-06T04:20:47;6.30;99.90
34766;DHT22;20984;43.508;1.504;2024-03-06T04:23:12;6.30;99.90
34766;DHT22;20984;43.508;1.504;2024-03-06T04:25:38;6.30;99.90
34766;DHT22;20984;43.508;1.504;2024-03-06T04:28:05;6.30;99.90
34766;DHT22;20984;43.508;1.504;2024-03-06T04:30:33;6.30;99.90
34766;DHT22;20984;43.508;1.504;2024-03-06T04:32:58;6.30;99.90
34766;DHT22;20984;43.508;1.504;2024-03-06T04:35:24;6.30;99.90
34766;DHT22;20984;43.508;1.504;2024-03-06T04:37:50;6.30;99.90
34766;DHT22;20984;43.508;1.504;2024-03-06T04:40:15;6.40;99.90
34766;DHT22;20984;43.508;1.504;2024-03-06T04:42:46;6.40;99.90
34766;DHT22;20984;43.508;1.504;2024-03-06T04:45:14;6.40;99.90
34766;DHT22;20984;43.508;1.504;2024-03-06T04:47:40;6.40;99.90
34766;DHT22;20984;43.508;1.504;2024-03-06T04:50:09;6.40;99.90
34766;DHT22;20984;43.508;1.504;2024-03-06T04:52:36;6.50;99.90
34766;DHT22;20984;43.508;1.504;2024-03-06T04:55:01;6.50;99.90
34766;DHT22;20984;43.508;1.504;2024-03-06T04:57:28;6.50;99.90
34766;DHT22;20984;43.508;1.504;2024-03-06T04:59:53;6.50;99.90
34766;DHT22;20984;43.508;1.504;2024-03-06T05:02:19;6.50;99.90
34766;DHT22;20984;43.508;1.504;2024-03-06T05:04:45;6.50;99.90
34766;DHT22;20984;43.508;1.504;2024-03-06T05:07:12;6.50;99.90
34766;DHT22;20984;43.508;1.504;2024-03-06T05:09:38;6.50;99.90
34766;DHT22;20984;43.508;1.504;2024-03-06T05:12:06;6.40;99.90
34766;DHT22;20984;43.508;1.504;2024-03-06T05:14:31;6.40;99.90
34766;DHT22;20984;43.508;1.504;2024-03-06T05:16:57;6.40;99.90
34766;DHT22;20984;43.508;1.504;2024-03-06T05:19:22;6.40;99.90
34766;DHT22;20984;43.508;1.504;2024-03-06T05:21:48;6.40;99.90
34766;DHT22;20984;43.508;1.504;2024-03-06T05:24:13;6.40;99.90
34766;DHT22;20984;43.508;1.504;2024-03-06T05:26:39;6.40;99.90
34766;DHT22;20984;43.508;1.504;2024-03-06T05:29:04;6.40;99.90
34766;DHT22;20984;43.508;1.504;2024-03-06T05:31:30;6.30;99.90
34766;DHT22;20984;43.508;1.504;2024-03-06T05:33:55;6.40;99.90
34766;DHT22;20984;43.508;1.504;2024-03-06T05:36:21;6.30;99.90
34766;DHT22;20984;43.508;1.504;2024-03-06T05:38:46;6.30;99.90
34766;DHT22;20984;43.508;1.504;2024-03-06T05:41:13;6.30;99.90
34766;DHT22;20984;43.508;1.504;2024-03-06T05:43:39;6.30;99.90
34766;DHT22;20984;43.508;1.504;2024-03-06T05:46:06;6.30;99.90
34766;DHT22;20984;43.508;1.504;2024-03-06T05:48:31;6.30;99.90
34766;DHT22;20984;43.508;1.504;2024-03-06T05:50:58;6.30;99.90
34766;DHT22;20984;43.508;1.504;2024-03-06T05:53:24;6.30;99.90
34766;DHT22;20984;43.508;1.504;2024-03-06T05:55:50;6.30;99.90
34766;DHT22;20984;43.508;1.504;2024-03-06T05:58:15;6.30;99.90
34766;DHT22;20984;43.508;1.504;2024-03-06T06:00:41;6.30;99.90
34766;DHT22;20984;43.508;1.504;2024-03-06T06:03:07;6.30;99.90
34766;DHT22;20984;43.508;1.504;2024-03-06T06:05:33;6.30;99.90
34766;DHT22;20984;43.508;1.504;2024-03-06T06:07:58;6.30;99.90
34766;DHT22;20984;43.508;1.504;2024-03-06T06:10:25;6.20;99.90
34766;DHT22;20984;43.508;1.504;2024-03-06T06:12:50;6.10;99.90
34766;DHT22;20984;43.508;1.504;2024-03-06T06:15:16;6.10;99.90
34766;DHT22;20984;43.508;1.504;2024-03-06T06:17:41;6.10;99.90
34766;DHT22;20984;43.508;1.504;2024-03-06T06:20:09;6.00;99.90
34766;DHT22;20984;43.508;1.504;2024-03-06T06:22:40;6.00;99.90
34766;DHT22;20984;43.508;1.504;2024-03-06T06:25:05;6.00;99.90
34766;DHT22;20984;43.508;1.504;2024-03-06T06:27:32;5.90;99.90
34766;DHT22;20984;43.508;1.504;2024-03-06T06:29:58;5.90;99.90
34766;DHT22;20984;43.508;1.504;2024-03-06T06:32:24;5.90;99.90
34766;DHT22;20984;43.508;1.504;2024-03-06T06:34:49;5.90;99.90
34766;DHT22;20984;43.508;1.504;2024-03-06T06:37:15;5.90;99.90
34766;DHT22;20984;43.508;1.504;2024-03-06T06:39:41;5.90;99.90
34766;DHT22;20984;43.508;1.504;2024-03-06T06:42:06;5.90;99.90
34766;DHT22;20984;43.508;1.504;2024-03-06T06:44:32;5.90;99.90
34766;DHT22;20984;43.508;1.504;2024-03-06T06:46:57;5.90;99.90
34766;DHT22;20984;43.508;1.504;2024-03-06T06:49:23;6.00;99.90
34766;DHT22;20984;43.508;1.504;2024-03-06T06:51:49;6.00;99.90
34766;DHT22;20984;43.508;1.504;2024-03-06T06:54:14;6.00;99.90
34766;DHT22;20984;43.508;1.504;2024-03-06T06:56:40;6.00;99.90
34766;DHT22;20984;43.508;1.504;2024-03-06T06:59:05;6.00;99.90
34766;DHT22;20984;43.508;1.504;2024-03-06T07:01:31;6.00;99.90
34766;DHT22;20984;43.508;1.504;2024-03-06T07:03:58;6.10;99.90
34766;DHT22;20984;43.508;1.504;2024-03-06T07:06:23;6.00;99.90
34766;DHT22;20984;43.508;1.504;2024-03-06T07:08:50;6.00;99.90
34766;DHT22;20984;43.508;1.504;2024-03-06T07:11:18;6.00;99.90
34766;DHT22;20984;43.508;1.504;2024-03-06T07:13:44;6.00;99.90
34766;DHT22;20984;43.508;1.504;2024-03-06T07:16:10;6.00;99.90
34766;DHT22;20984;43.508;1.504;2024-03-06T07:18:35;6.10;99.90
34766;DHT22;20984;43.508;1.504;2024-03-06T07:21:01;6.20;99.90
34766;DHT22;20984;43.508;1.504;2024-03-06T07:23:26;6.20;99.90
34766;DHT22;20984;43.508;1.504;2024-03-06T07:25:52;6.30;99.90
34766;DHT22;20984;43.508;1.504;2024-03-06T07:28:17;6.50;99.90
34766;DHT22;20984;43.508;1.504;2024-03-06T07:30:44;6.60;99.90
34766;DHT22;20984;43.508;1.504;2024-03-06T07:33:09;6.80;99.90
34766;DHT22;20984;43.508;1.504;2024-03-06T07:35:35;7.00;99.90
34766;DHT22;20984;43.508;1.504;2024-03-06T07:38:03;7.20;99.90
34766;DHT22;20984;43.508;1.504;2024-03-06T07:40:30;7.30;99.90
34766;DHT22;20984;43.508;1.504;2024-03-06T07:42:56;7.50;99.90
34766;DHT22;20984;43.508;1.504;2024-03-06T07:45:22;7.80;99.90
34766;DHT22;20984;43.508;1.504;2024-03-06T07:47:47;8.00;99.90
34766;DHT22;20984;43.508;1.504;2024-03-06T07:50:13;8.20;99.90
34766;DHT22;20984;43.508;1.504;2024-03-06T07:52:47;8.30;99.90
34766;DHT22;20984;43.508;1.504;2024-03-06T07:55:12;8.20;99.90
34766;DHT22;20984;43.508;1.504;2024-03-06T07:57:38;8.20;99.90
34766;DHT22;20984;43.508;1.504;2024-03-06T08:00:04;8.30;99.90
34766;DHT22;20984;43.508;1.504;2024-03-06T08:02:34;8.30;99.90
34766;DHT22;20984;43.508;1.504;2024-03-06T08:05:00;8.30;99.90
34766;DHT22;20984;43.508;1.504;2024-03-06T08:07:26;8.40;99.90
34766;DHT22;20984;43.508;1.504;2024-03-06T08:09:52;8.50;99.90
34766;DHT22;20984;43.508;1.504;2024-03-06T08:12:17;8.60;99.90
34766;DHT22;20984;43.508;1.504;2024-03-06T08:14:43;8.70;99.90
34766;DHT22;20984;43.508;1.504;2024-03-06T08:17:08;8.70;99.90
34766;DHT22;20984;43.508;1.504;2024-03-06T08:19:34;8.70;99.90
34766;DHT22;20984;43.508;1.504;2024-03-06T08:21:59;8.80;99.90
34766;DHT22;20984;43.508;1.504;2024-03-06T08:24:26;8.80;99.90
34766;DHT22;20984;43.508;1.504;2024-03-06T08:26:53;8.80;99.90
34766;DHT22;20984;43.508;1.504;2024-03-06T08:29:18;8.90;99.90
34766;DHT22;20984;43.508;1.504;2024-03-06T08:31:44;8.90;99.90
34766;DHT22;20984;43.508;1.504;2024-03-06T08:34:09;9.00;99.90
34766;DHT22;20984;43.508;1.504;2024-03-06T08:36:35;9.00;99.90
34766;DHT22;20984;43.508;1.504;2024-03-06T08:39:00;9.00;99.90
34766;DHT22;20984;43.508;1.504;2024-03-06T08:41:26;9.10;99.90
34766;DHT22;20984;43.508;1.504;2024-03-06T08:43:51;9.40;99.90
34766;DHT22;20984;43.508;1.504;2024-03-06T08:46:17;9.50;99.90
34766;DHT22;20984;43.508;1.504;2024-03-06T08:48:43;9.60;99.90
34766;DHT22;20984;43.508;1.504;2024-03-06T08:51:08;9.70;99.90
34766;DHT22;20984;43.508;1.504;2024-03-06T08:53:36;9.70;99.90
34766;DHT22;20984;43.508;1.504;2024-03-06T08:56:02;9.70;99.90
34766;DHT22;20984;43.508;1.504;2024-03-06T08:58:27;9.70;99.90
34766;DHT22;20984;43.508;1.504;2024-03-06T09:00:53;9.80;99.90
34766;DHT22;20984;43.508;1.504;2024-03-06T09:03:19;9.90;99.90
34766;DHT22;20984;43.508;1.504;2024-03-06T09:05:44;9.90;99.90
34766;DHT22;20984;43.508;1.504;2024-03-06T09:08:10;9.90;99.90
34766;DHT22;20984;43.508;1.504;2024-03-06T09:10:37;9.90;99.90
34766;DHT22;20984;43.508;1.504;2024-03-06T09:13:02;9.90;99.90
34766;DHT22;20984;43.508;1.504;2024-03-06T09:15:28;10.00;99.90
34766;DHT22;20984;43.508;1.504;2024-03-06T09:17:53;10.20;99.90
34766;DHT22;20984;43.508;1.504;2024-03-06T09:20:20;10.30;99.90
34766;DHT22;20984;43.508;1.504;2024-03-06T09:22:45;10.40;99.90
34766;DHT22;20984;43.508;1.504;2024-03-06T09:25:11;10.50;99.90
34766;DHT22;20984;43.508;1.504;2024-03-06T09:27:38;10.40;99.90
34766;DHT22;20984;43.508;1.504;2024-03-06T09:30:04;10.30;99.90
34766;DHT22;20984;43.508;1.504;2024-03-06T09:32:30;10.20;99.90
34766;DHT22;20984;43.508;1.504;2024-03-06T09:34:55;10.30;99.90
34766;DHT22;20984;43.508;1.504;2024-03-06T09:37:21;10.50;99.90
34766;DHT22;20984;43.508;1.504;2024-03-06T09:39:47;10.50;99.90
34766;DHT22;20984;43.508;1.504;2024-03-06T09:42:13;10.70;99.90
34766;DHT22;20984;43.508;1.504;2024-03-06T09:44:38;10.80;99.90
34766;DHT22;20984;43.508;1.504;2024-03-06T09:47:04;10.90;99.90
34766;DHT22;20984;43.508;1.504;2024-03-06T09:49:31;10.90;99.90
34766;DHT22;20984;43.508;1.504;2024-03-06T09:51:56;10.90;99.90
34766;DHT22;20984;43.508;1.504;2024-03-06T09:54:23;11.00;99.90
34766;DHT22;20984;43.508;1.504;2024-03-06T09:56:51;11.00;99.90
34766;DHT22;20984;43.508;1.504;2024-03-06T09:59:17;11.10;99.90
34766;DHT22;20984;43.508;1.504;2024-03-06T10:04:17;10.80;99.90
34766;DHT22;20984;43.508;1.504;2024-03-06T10:06:45;10.70;99.90
34766;DHT22;20984;43.508;1.504;2024-03-06T10:09:11;10.60;99.90
34766;DHT22;20984;43.508;1.504;2024-03-06T10:11:40;10.60;99.90
34766;DHT22;20984;43.508;1.504;2024-03-06T10:14:05;10.60;99.90
34766;DHT22;20984;43.508;1.504;2024-03-06T10:16:31;10.70;99.90
34766;DHT22;20984;43.508;1.504;2024-03-06T10:18:56;10.80;99.90
34766;DHT22;20984;43.508;1.504;2024-03-06T10:21:31;11.00;99.90
34766;DHT22;20984;43.508;1.504;2024-03-06T10:23:57;11.10;99.90
34766;DHT22;20984;43.508;1.504;2024-03-06T10:26:24;11.30;99.90
34766;DHT22;20984;43.508;1.504;2024-03-06T10:28:50;11.30;99.90
34766;DHT22;20984;43.508;1.504;2024-03-06T10:31:26;11.30;99.90
34766;DHT22;20984;43.508;1.504;2024-03-06T10:33:51;11.20;99.90
34766;DHT22;20984;43.508;1.504;2024-03-06T10:36:18;11.10;99.90
34766;DHT22;20984;43.508;1.504;2024-03-06T10:38:44;11.20;99.90
34766;DHT22;20984;43.508;1.504;2024-03-06T10:41:10;11.10;99.90
34766;DHT22;20984;43.508;1.504;2024-03-06T10:43:39;11.20;99.90
34766;DHT22;20984;43.508;1.504;2024-03-06T10:46:06;11.00;99.90
34766;DHT22;20984;43.508;1.504;2024-03-06T10:48:32;11.10;99.90
34766;DHT22;20984;43.508;1.504;2024-03-06T10:51:00;11.20;99.90
34766;DHT22;20984;43.508;1.504;2024-03-06T10:53:28;11.30;99.90
34766;DHT22;20984;43.508;1.504;2024-03-06T10:55:55;11.40;99.90
34766;DHT22;20984;43.508;1.504;2024-03-06T10:58:21;11.30;99.90
34766;DHT22;20984;43.508;1.504;2024-03-06T11:00:48;11.30;99.90
34766;DHT22;20984;43.508;1.504;2024-03-06T11:03:14;11.40;99.90
34766;DHT22;20984;43.508;1.504;2024-03-06T11:05:41;11.40;99.90
34766;DHT22;20984;43.508;1.504;2024-03-06T11:10:33;11.50;99.90
34766;DHT22;20984;43.508;1.504;2024-03-06T11:13:00;11.60;99.90
34766;DHT22;20984;43.508;1.504;2024-03-06T11:15:25;11.60;99.90
34766;DHT22;20984;43.508;1.504;2024-03-06T11:17:51;11.60;99.90
34766;DHT22;20984;43.508;1.504;2024-03-06T11:20:19;11.60;99.90
34766;DHT22;20984;43.508;1.504;2024-03-06T11:26:05;11.50;99.90
34766;DHT22;20984;43.508;1.504;2024-03-06T11:28:15;11.60;99.90
34766;DHT22;20984;43.508;1.504;2024-03-06T11:33:35;11.70;99.90
34766;DHT22;20984;43.508;1.504;2024-03-06T11:38:59;11.70;99.90
34766;DHT22;20984;43.508;1.504;2024-03-06T11:41:26;11.90;99.90
34766;DHT22;20984;43.508;1.504;2024-03-06T11:43:52;11.90;99.90
34766;DHT22;20984;43.508;1.504;2024-03-06T11:46:21;11.90;99.90
34766;DHT22;20984;43.508;1.504;2024-03-06T11:48:53;11.90;99.90
34766;DHT22;20984;43.508;1.504;2024-03-06T11:51:19;11.90;99.90
34766;DHT22;20984;43.508;1.504;2024-03-06T11:53:45;12.00;99.90
34766;DHT22;20984;43.508;1.504;2024-03-06T11:56:11;12.10;99.90
34766;DHT22;20984;43.508;1.504;2024-03-06T11:58:36;12.20;99.90
34766;DHT22;20984;43.508;1.504;2024-03-06T12:01:03;12.20;99.90
34766;DHT22;20984;43.508;1.504;2024-03-06T12:03:29;12.20;99.90
34766;DHT22;20984;43.508;1.504;2024-03-06T12:05:55;12.20;99.90
34766;DHT22;20984;43.508;1.504;2024-03-06T12:08:20;12.30;99.90
34766;DHT22;20984;43.508;1.504;2024-03-06T12:10:46;12.30;99.90
34766;DHT22;20984;43.508;1.504;2024-03-06T12:13:13;12.30;99.90
34766;DHT22;20984;43.508;1.504;2024-03-06T12:15:38;12.30;99.90
34766;DHT22;20984;43.508;1.504;2024-03-06T12:18:04;12.40;99.90
34766;DHT22;20984;43.508;1.504;2024-03-06T12:20:30;12.50;99.90
34766;DHT22;20984;43.508;1.504;2024-03-06T12:22:56;12.50;99.90
34766;DHT22;20984;43.508;1.504;2024-03-06T12:25:23;12.50;99.90
34766;DHT22;20984;43.508;1.504;2024-03-06T12:27:49;12.60;99.90
34766;DHT22;20984;43.508;1.504;2024-03-06T12:30:18;12.80;99.90
34766;DHT22;20984;43.508;1.504;2024-03-06T12:32:44;12.70;99.90
34766;DHT22;20984;43.508;1.504;2024-03-06T12:35:10;12.90;99.90
34766;DHT22;20984;43.508;1.504;2024-03-06T12:37:36;12.90;99.90
34766;DHT22;20984;43.508;1.504;2024-03-06T12:40:02;13.00;99.90
34766;DHT22;20984;43.508;1.504;2024-03-06T12:42:30;13.00;99.90
34766;DHT22;20984;43.508;1.504;2024-03-06T12:44:55;13.00;99.90
34766;DHT22;20984;43.508;1.504;2024-03-06T12:47:21;13.10;99.90
34766;DHT22;20984;43.508;1.504;2024-03-06T12:49:46;13.20;99.90
34766;DHT22;20984;43.508;1.504;2024-03-06T12:52:12;13.30;99.90
34766;DHT22;20984;43.508;1.504;2024-03-06T12:54:37;13.30;99.90
34766;DHT22;20984;43.508;1.504;2024-03-06T12:57:03;13.40;99.90
34766;DHT22;20984;43.508;1.504;2024-03-06T12:59:29;13.60;99.90
34766;DHT22;20984;43.508;1.504;2024-03-06T13:01:54;13.60;99.90
34766;DHT22;20984;43.508;1.504;2024-03-06T13:04:20;13.70;99.90
34766;DHT22;20984;43.508;1.504;2024-03-06T13:06:46;13.60;99.90
34766;DHT22;20984;43.508;1.504;2024-03-06T13:09:12;13.70;99.90
34766;DHT22;20984;43.508;1.504;2024-03-06T13:11:37;14.00;99.90
34766;DHT22;20984;43.508;1.504;2024-03-06T13:14:03;14.20;99.90
34766;DHT22;20984;43.508;1.504;2024-03-06T13:16:28;14.10;99.90
34766;DHT22;20984;43.508;1.504;2024-03-06T13:18:54;13.90;99.90
34766;DHT22;20984;43.508;1.504;2024-03-06T13:21:22;13.70;99.90
34766;DHT22;20984;43.508;1.504;2024-03-06T13:23:47;13.40;99.90
34766;DHT22;20984;43.508;1.504;2024-03-06T13:26:13;13.10;99.90
34766;DHT22;20984;43.508;1.504;2024-03-06T13:28:39;13.00;99.90
34766;DHT22;20984;43.508;1.504;2024-03-06T13:31:04;12.90;99.90
34766;DHT22;20984;43.508;1.504;2024-03-06T13:33:32;13.00;99.90
34766;DHT22;20984;43.508;1.504;2024-03-06T13:35:58;13.00;99.90
34766;DHT22;20984;43.508;1.504;2024-03-06T13:38:23;13.20;99.90
34766;DHT22;20984;43.508;1.504;2024-03-06T13:40:49;13.40;99.90
34766;DHT22;20984;43.508;1.504;2024-03-06T13:43:15;13.80;99.90
34766;DHT22;20984;43.508;1.504;2024-03-06T13:45:48;14.20;99.90
34766;DHT22;20984;43.508;1.504;2024-03-06T13:48:13;14.50;99.90
34766;DHT22;20984;43.508;1.504;2024-03-06T13:50:41;14.60;99.90
34766;DHT22;20984;43.508;1.504;2024-03-06T13:53:09;14.60;99.90
34766;DHT22;20984;43.508;1.504;2024-03-06T13:55:35;14.60;99.90
34766;DHT22;20984;43.508;1.504;2024-03-06T13:58:01;14.50;99.90
34766;DHT22;20984;43.508;1.504;2024-03-06T14:00:27;14.40;99.90
34766;DHT22;20984;43.508;1.504;2024-03-06T14:02:52;14.40;99.90
34766;DHT22;20984;43.508;1.504;2024-03-06T14:05:18;14.40;99.90
34766;DHT22;20984;43.508;1.504;2024-03-06T14:07:50;14.30;99.90
34766;DHT22;20984;43.508;1.504;2024-03-06T14:10:15;14.30;99.90
34766;DHT22;20984;43.508;1.504;2024-03-06T14:12:44;14.40;99.90
34766;DHT22;20984;43.508;1.504;2024-03-06T14:15:10;14.50;99.90
34766;DHT22;20984;43.508;1.504;2024-03-06T14:17:39;14.40;99.90
34766;DHT22;20984;43.508;1.504;2024-03-06T14:20:05;14.40;99.90
34766;DHT22;20984;43.508;1.504;2024-03-06T14:22:31;14.10;99.90
34766;DHT22;20984;43.508;1.504;2024-03-06T14:24:57;14.00;99.90
34766;DHT22;20984;43.508;1.504;2024-03-06T14:27:22;13.90;99.90
34766;DHT22;20984;43.508;1.504;2024-03-06T14:29:48;13.90;99.90
34766;DHT22;20984;43.508;1.504;2024-03-06T14:32:14;13.90;99.90
34766;DHT22;20984;43.508;1.504;2024-03-06T14:34:40;14.00;99.90
34766;DHT22;20984;43.508;1.504;2024-03-06T14:37:05;14.20;99.90
34766;DHT22;20984;43.508;1.504;2024-03-06T14:39:31;14.20;99.90
34766;DHT22;20984;43.508;1.504;2024-03-06T14:41:57;14.40;99.90
34766;DHT22;20984;43.508;1.504;2024-03-06T14:44:22;14.50;99.90
34766;DHT22;20984;43.508;1.504;2024-03-06T14:46:48;14.60;99.90
34766;DHT22;20984;43.508;1.504;2024-03-06T14:49:13;14.80;99.90
34766;DHT22;20984;43.508;1.504;2024-03-06T14:51:41;14.80;99.90
34766;DHT22;20984;43.508;1.504;2024-03-06T14:54:06;14.90;99.90
34766;DHT22;20984;43.508;1.504;2024-03-06T14:56:32;14.80;99.90
34766;DHT22;20984;43.508;1.504;2024-03-06T14:58:58;14.60;99.90
34766;DHT22;20984;43.508;1.504;2024-03-06T15:01:23;14.40;99.90
34766;DHT22;20984;43.508;1.504;2024-03-06T15:03:50;14.10;99.90
34766;DHT22;20984;43.508;1.504;2024-03-06T15:06:16;13.90;99.90
34766;DHT22;20984;43.508;1.504;2024-03-06T15:08:41;13.70;99.90
34766;DHT22;20984;43.508;1.504;2024-03-06T15:11:10;13.50;99.90
34766;DHT22;20984;43.508;1.504;2024-03-06T15:13:35;13.50;99.90
34766;DHT22;20984;43.508;1.504;2024-03-06T15:16:01;13.50;99.90
34766;DHT22;20984;43.508;1.504;2024-03-06T15:18:29;13.50;99.90
34766;DHT22;20984;43.508;1.504;2024-03-06T15:20:55;13.70;99.90
34766;DHT22;20984;43.508;1.504;2024-03-06T15:23:20;13.80;99.90
34766;DHT22;20984;43.508;1.504;2024-03-06T15:25:46;13.90;99.90
34766;DHT22;20984;43.508;1.504;2024-03-06T15:28:12;14.00;99.90
34766;DHT22;20984;43.508;1.504;2024-03-06T15:30:38;14.00;99.90
34766;DHT22;20984;43.508;1.504;2024-03-06T15:33:06;14.00;99.90
34766;DHT22;20984;43.508;1.504;2024-03-06T15:35:32;14.10;99.90
34766;DHT22;20984;43.508;1.504;2024-03-06T15:37:58;14.10;99.90
34766;DHT22;20984;43.508;1.504;2024-03-06T15:40:23;14.10;99.90
34766;DHT22;20984;43.508;1.504;2024-03-06T15:42:50;14.00;99.90
34766;DHT22;20984;43.508;1.504;2024-03-06T15:45:16;14.10;99.90